createdAt,value
2023-02-05T02:26:42.942Z,100263.03
2023-02-05T02:28:25.299Z,100265.53
2023-02-05T02:30:14.995Z,100259.38
2023-02-05T02:31:52.156Z,100281.34
2023-02-05T02:33:34.907Z,100273.00
2023-02-05T02:35:41.994Z,100273.06
2023-02-05T02:37:37.191Z,100267.22
2023-02-05T02:39:09.080Z,100268.69
2023-02-05T02:40:45.254Z,100264.56
2023-02-05T02:42:23.784Z,100269.75
2023-02-05T02:44:00.205Z,100272.19
2023-02-05T02:45:35.064Z,100265.47
2023-02-05T02:47:38.844Z,100284.88
2023-02-05T02:49:16.188Z,100283.94
2023-02-05T02:50:50.185Z,100279.56
2023-02-05T02:52:24.804Z,100292.44
2023-02-05T02:53:58.770Z,100285.53
2023-02-05T02:55:34.902Z,100287.84
2023-02-05T02:57:09.166Z,100296.53
2023-02-05T02:58:49.965Z,100297.41
2023-02-05T03:00:26.672Z,100304.25
2023-02-05T03:02:01.139Z,100306.88
2023-02-05T03:03:37.469Z,100304.41
2023-02-05T03:05:12.427Z,100311.78
2023-02-05T03:06:47.824Z,100313.72
2023-02-05T03:08:33.318Z,100312.66
2023-02-05T03:10:15.828Z,100319.59
2023-02-05T03:11:48.237Z,100325.44
2023-02-05T03:13:20.447Z,100329.53
2023-02-05T03:14:53.248Z,100329.59
2023-02-05T03:16:27.496Z,100332.16
2023-02-05T03:17:59.676Z,100326.81
2023-02-05T03:19:31.914Z,100341.81
2023-02-05T03:21:08.420Z,100335.38
2023-02-05T03:22:40.526Z,100338.06
2023-02-05T03:24:13.419Z,100339.91
2023-02-05T03:25:45.571Z,100346.66
2023-02-05T03:27:17.672Z,100354.34
2023-02-05T03:28:49.727Z,100356.69
2023-02-05T03:32:34.376Z,100351.59
2023-02-05T03:34:31.342Z,100354.19
2023-02-05T03:36:22.012Z,100363.34
2023-02-05T03:38:33.950Z,100368.22
2023-02-05T03:40:11.657Z,100362.94
2023-02-05T03:41:56.635Z,100361.06
2023-02-05T03:43:49.463Z,100377.03
2023-02-05T03:45:32.599Z,100377.28
2023-02-05T03:47:16.667Z,100377.47
2023-02-05T03:49:20.156Z,100372.41
2023-02-05T03:51:07.121Z,100387.53
2023-02-05T03:52:45.328Z,100384.28
2023-02-05T03:54:37.551Z,100387.03
2023-02-05T03:56:17.068Z,100380.41
2023-02-05T03:58:09.538Z,100393.28
2023-02-05T03:59:41.568Z,100388.09
2023-02-05T04:01:13.883Z,100385.72
2023-02-05T04:02:46.067Z,100389.03
2023-02-05T04:04:18.412Z,100396.59
2023-02-05T04:05:50.450Z,100394.19
2023-02-05T04:07:22.595Z,100397.72
2023-02-05T04:08:54.729Z,100390.81
2023-02-05T04:10:26.718Z,100391.97
2023-02-05T04:11:58.753Z,100392.94
2023-02-05T04:13:30.956Z,100391.31
2023-02-05T04:15:03.572Z,100401.56
2023-02-05T04:16:35.691Z,100400.69
2023-02-05T04:18:08.737Z,100402.34
2023-02-05T04:19:43.327Z,100391.47
2023-02-05T04:21:15.399Z,100402.19
2023-02-05T04:22:47.450Z,100409.16
2023-02-05T04:24:19.551Z,100409.72
2023-02-05T04:25:55.453Z,100408.09
2023-02-05T04:27:27.491Z,100413.06
2023-02-05T04:28:59.534Z,100419.94
2023-02-05T04:30:32.249Z,100430.19
2023-02-05T04:32:04.458Z,100431.09
2023-02-05T04:35:14.897Z,100425.88
2023-02-05T04:36:47.113Z,100446.59
2023-02-05T04:38:19.154Z,100451.72
2023-02-05T04:39:51.782Z,100465.88
2023-02-05T04:41:23.821Z,100467.22
2023-02-05T04:42:56.030Z,100472.72
2023-02-05T04:44:28.767Z,100480.13
2023-02-05T04:46:08.287Z,100478.59
2023-02-05T04:47:40.568Z,100481.66
2023-02-05T04:49:12.792Z,100477.59
2023-02-05T04:50:44.877Z,100486.13
2023-02-05T04:52:16.927Z,100486.16
2023-02-05T04:53:49.053Z,100483.69
2023-02-05T04:55:21.192Z,100499.06
2023-02-05T04:56:53.187Z,100491.31
2023-02-05T04:58:25.209Z,100500.44
2023-02-05T04:59:57.441Z,100505.63
2023-02-05T05:01:29.557Z,100504.94
2023-02-05T05:03:01.780Z,100503.25
2023-02-05T05:04:33.847Z,100503.34
2023-02-05T05:06:06.701Z,100494.84
2023-02-05T05:07:39.157Z,100499.09
2023-02-05T05:09:11.267Z,100498.38
2023-02-05T05:10:43.385Z,100494.84
2023-02-05T05:12:15.603Z,100506.72
2023-02-05T05:13:49.586Z,100506.88
2023-02-05T05:15:21.745Z,100506.94
2023-02-05T05:16:53.904Z,100507.88
2023-02-05T05:18:26.135Z,100508.78
2023-02-05T05:19:58.202Z,100507.91
2023-02-05T05:21:30.376Z,100514.66
2023-02-05T05:23:02.402Z,100513.06
2023-02-05T05:24:34.614Z,100510.56
2023-02-05T05:26:12.101Z,100512.34
2023-02-05T05:27:44.393Z,100517.38
2023-02-05T05:29:16.530Z,100522.28
2023-02-05T05:30:48.963Z,100529.16
2023-02-05T05:32:21.203Z,100523.22
2023-02-05T05:33:53.565Z,100527.44
2023-02-05T05:35:25.810Z,100529.13
2023-02-05T05:36:58.035Z,100535.94
